Time;durP1;ratioP1;P1;durP2;ratioP2;P2;SDS_P1;SDS_P2;PMS_P1;PMS_P2;Temp;Humidity;BMP_temperature;BMP_pressure;BME280_temperature;BME280_humidity;BME280_pressure;Samples;Min_cycle;Max_cycle;Signal;HPM_P1;HPM_P2
2021/03/23 00:01:16;;;;;;;19.90;8.90;;;5.90;83.00;;;;;;5067959;28;20275;-72
2021/03/23 00:03:45;;;;;;;21.90;8.50;;;5.70;83.40;;;;;;5068067;28;20944;-71
2021/03/23 00:06:14;;;;;;;16.87;7.50;;;5.80;83.80;;;;;;5063452;28;20435;-71
2021/03/23 00:08:46;;;;;;;17.13;7.70;;;5.80;83.70;;;;;;5064864;28;20442;-71
2021/03/23 00:11:31;;;;;;;21.73;8.30;;;5.80;83.30;;;;;;5062797;28;20867;-70
2021/03/23 00:14:00;;;;;;;17.53;8.33;;;5.80;83.60;;;;;;5057010;28;20502;-71
2021/03/23 00:16:29;;;;;;;18.27;7.50;;;5.80;83.70;;;;;;5065997;28;20526;-71
2021/03/23 00:18:55;;;;;;;21.70;7.87;;;5.80;83.80;;;;;;5066320;28;20528;-72
2021/03/23 00:21:22;;;;;;;22.30;7.90;;;5.70;83.60;;;;;;5065481;28;20537;-72
2021/03/23 00:23:48;;;;;;;20.20;8.60;;;5.70;83.80;;;;;;5075637;28;20438;-72
2021/03/23 00:26:17;;;;;;;19.07;8.80;;;5.70;83.80;;;;;;5071996;28;20448;-73
2021/03/23 00:28:48;;;;;;;16.47;7.90;;;5.80;84.10;;;;;;5070278;28;20258;-71
2021/03/23 00:31:19;;;;;;;14.97;7.13;;;5.80;83.70;;;;;;5068116;28;20864;-71
2021/03/23 00:33:45;;;;;;;16.13;7.03;;;5.80;83.80;;;;;;5067747;28;20473;-71
2021/03/23 00:36:15;;;;;;;21.13;8.63;;;5.90;83.70;;;;;;5068808;28;20414;-73
2021/03/23 00:38:41;;;;;;;17.50;8.00;;;5.90;83.60;;;;;;5069593;28;20444;-72
2021/03/23 00:41:08;;;;;;;22.30;9.13;;;5.90;83.30;;;;;;5068173;28;20426;-72
2021/03/23 00:43:37;;;;;;;15.87;7.37;;;5.90;83.30;;;;;;5068830;28;20432;-72
2021/03/23 00:46:04;;;;;;;27.83;9.80;;;5.90;83.80;;;;;;5068992;28;20483;-72
2021/03/23 00:48:30;;;;;;;20.37;7.80;;;5.80;83.80;;;;;;5067960;28;20442;-71
2021/03/23 00:50:55;;;;;;;27.83;8.97;;;5.80;84.10;;;;;;5074215;28;20456;-72
2021/03/23 00:53:22;;;;;;;16.80;8.00;;;5.80;84.30;;;;;;5071931;28;21008;-71
2021/03/23 00:55:49;;;;;;;20.03;7.60;;;5.80;84.40;;;;;;5071630;28;20500;-70
2021/03/23 00:58:15;;;;;;;19.23;9.50;;;5.70;84.60;;;;;;5065318;28;20279;-71
2021/03/23 01:00:41;;;;;;;23.37;9.20;;;5.70;84.90;;;;;;5062966;28;20418;-71
2021/03/23 01:03:07;;;;;;;22.40;8.67;;;5.60;85.50;;;;;;5068851;28;20429;-71
2021/03/23 01:05:35;;;;;;;24.30;8.87;;;5.60;85.90;;;;;;5069498;28;20203;-72
2021/03/23 01:08:01;;;;;;;23.43;8.53;;;5.60;85.60;;;;;;5069867;28;20422;-72
2021/03/23 01:10:29;;;;;;;20.47;10.07;;;5.50;85.70;;;;;;5069185;28;20909;-71
2021/03/23 01:12:56;;;;;;;19.93;9.40;;;5.60;86.00;;;;;;5062702;28;20497;-71
2021/03/23 01:15:25;;;;;;;19.80;9.07;;;5.70;86.00;;;;;;5059290;28;20466;-71
2021/03/23 01:17:51;;;;;;;22.93;8.73;;;5.70;85.60;;;;;;5069122;28;20436;-71
2021/03/23 01:20:19;;;;;;;17.60;8.63;;;5.80;85.50;;;;;;5064142;28;20863;-71
2021/03/23 01:22:45;;;;;;;23.67;10.40;;;5.80;85.30;;;;;;5069602;28;20234;-71
2021/03/23 01:25:12;;;;;;;17.50;8.60;;;5.70;85.20;;;;;;5063915;28;21007;-72
2021/03/23 01:27:38;;;;;;;17.00;9.23;;;5.80;85.50;;;;;;5068979;28;21099;-70
2021/03/23 01:30:09;;;;;;;19.07;8.77;;;5.80;85.30;;;;;;5070009;28;20436;-72
2021/03/23 01:32:35;;;;;;;23.20;9.97;;;5.80;85.20;;;;;;5069172;28;20470;-71
2021/03/23 01:35:01;;;;;;;27.73;10.40;;;5.70;85.30;;;;;;5069122;28;20541;-71
2021/03/23 01:37:26;;;;;;;26.10;9.30;;;5.60;85.70;;;;;;5070783;28;20232;-71
2021/03/23 01:39:52;;;;;;;20.80;9.30;;;5.60;86.20;;;;;;5071558;28;20176;-71
2021/03/23 01:42:20;;;;;;;21.37;8.80;;;5.60;86.60;;;;;;5072021;28;20450;-70
2021/03/23 01:45:06;;;;;;;22.30;9.87;;;5.80;86.00;;;;;;5073258;28;20204;-72
2021/03/23 01:47:32;;;;;;;24.93;9.80;;;5.70;85.70;;;;;;5074682;28;20545;-72
2021/03/23 01:49:58;;;;;;;24.10;9.90;;;5.80;86.20;;;;;;5073133;28;20566;-72
2021/03/23 01:52:28;;;;;;;20.53;10.30;;;5.80;85.90;;;;;;5071390;28;20212;-70
2021/03/23 01:55:02;;;;;;;25.57;10.43;;;5.80;86.00;;;;;;5072771;28;20457;-72
2021/03/23 01:57:29;;;;;;;23.73;10.23;;;5.80;86.20;;;;;;5074905;28;20425;-71
2021/03/23 01:59:57;;;;;;;26.00;10.47;;;5.80;86.00;;;;;;5071178;28;20448;-71
2021/03/23 02:02:28;;;;;;;25.83;10.17;;;5.80;86.20;;;;;;5071798;28;20432;-71
2021/03/23 02:04:54;;;;;;;25.43;11.33;;;5.80;86.30;;;;;;5072464;28;20441;-72
2021/03/23 02:07:20;;;;;;;27.93;10.63;;;5.80;86.60;;;;;;5072729;28;20497;-72
2021/03/23 02:09:46;;;;;;;27.57;10.77;;;5.80;86.50;;;;;;5072594;28;20449;-72
2021/03/23 02:12:18;;;;;;;32.33;12.37;;;5.80;86.60;;;;;;5071529;28;21004;-71
2021/03/23 02:14:47;;;;;;;33.03;13.37;;;5.80;86.60;;;;;;5074579;28;20442;-70
2021/03/23 02:17:23;;;;;;;38.20;13.10;;;5.70;87.00;;;;;;5072347;28;20452;-71
2021/03/23 02:19:54;;;;;;;31.43;13.70;;;5.80;87.30;;;;;;5070320;28;20414;-71
2021/03/23 02:22:20;;;;;;;38.93;14.67;;;5.70;87.40;;;;;;5067253;28;20441;-70
2021/03/23 02:24:46;;;;;;;34.37;13.17;;;5.70;87.70;;;;;;5067791;28;20465;-71
2021/03/23 02:27:12;;;;;;;35.27;14.37;;;5.70;87.80;;;;;;5070440;28;20219;-72
2021/03/23 02:29:38;;;;;;;36.20;15.27;;;5.70;88.00;;;;;;5079314;28;20965;-71
2021/03/23 02:32:04;;;;;;;46.13;14.20;;;5.60;88.10;;;;;;5064601;28;20686;-72
2021/03/23 02:34:30;;;;;;;36.13;15.20;;;5.60;88.10;;;;;;5061338;28;20450;-71
2021/03/23 02:36:55;;;;;;;38.70;14.83;;;5.60;88.30;;;;;;5072966;28;20418;-71
2021/03/23 02:39:25;;;;;;;39.40;15.27;;;5.60;88.30;;;;;;5073134;28;20187;-73
2021/03/23 02:41:51;;;;;;;45.00;16.10;;;5.70;88.30;;;;;;5071748;28;20506;-72
2021/03/23 02:44:17;;;;;;;35.03;13.80;;;5.60;88.10;;;;;;5071216;28;20533;-72
2021/03/23 02:46:43;;;;;;;37.33;14.40;;;5.60;88.30;;;;;;5072614;28;20514;-71
2021/03/23 02:49:09;;;;;;;31.60;13.67;;;5.70;88.40;;;;;;5072608;28;20426;-71
2021/03/23 02:51:36;;;;;;;38.50;15.70;;;5.80;88.40;;;;;;5076727;28;20203;-73
2021/03/23 02:54:02;;;;;;;43.73;15.23;;;5.70;87.80;;;;;;5071144;28;20486;-72
2021/03/23 02:56:28;;;;;;;32.43;13.97;;;5.70;88.10;;;;;;5068792;28;20422;-71
2021/03/23 02:58:53;;;;;;;44.93;17.60;;;5.80;88.10;;;;;;5071069;28;20789;-72
2021/03/23 03:01:19;;;;;;;41.20;16.00;;;5.80;87.70;;;;;;5070791;28;20195;-72
2021/03/23 03:03:45;;;;;;;44.67;17.87;;;5.80;87.60;;;;;;5087348;28;20261;-72
2021/03/23 03:06:13;;;;;;;38.77;15.70;;;5.80;87.60;;;;;;5070687;28;20263;-72
2021/03/23 03:08:40;;;;;;;39.10;14.30;;;5.70;87.80;;;;;;5066651;28;20192;-71
2021/03/23 03:11:06;;;;;;;40.27;16.20;;;5.70;87.70;;;;;;5070146;28;20423;-71
2021/03/23 03:13:33;;;;;;;42.87;16.60;;;5.60;87.80;;;;;;5060595;28;20552;-72
2021/03/23 03:16:00;;;;;;;37.77;14.17;;;5.70;88.00;;;;;;5068088;28;20418;-70
2021/03/23 03:18:27;;;;;;;35.57;15.10;;;5.70;87.80;;;;;;5071233;28;20429;-71
2021/03/23 03:20:54;;;;;;;43.20;16.07;;;5.70;87.60;;;;;;5064360;28;20493;-72
2021/03/23 03:23:21;;;;;;;50.83;16.83;;;5.60;87.80;;;;;;5071635;28;20764;-72
2021/03/23 03:25:48;;;;;;;37.33;14.80;;;5.60;88.00;;;;;;5070562;28;20501;-72
2021/03/23 03:28:15;;;;;;;41.70;16.27;;;5.70;88.00;;;;;;5070922;28;20433;-71
2021/03/23 03:30:42;;;;;;;35.50;15.53;;;5.70;87.70;;;;;;5070436;28;20916;-72
2021/03/23 03:33:10;;;;;;;37.93;14.67;;;5.80;87.10;;;;;;5070100;28;20477;-71
2021/03/23 03:35:38;;;;;;;49.50;17.30;;;5.80;87.00;;;;;;5069762;28;20448;-72
2021/03/23 03:38:04;;;;;;;35.13;16.10;;;5.80;86.90;;;;;;5070537;28;20444;-72
2021/03/23 03:40:46;;;;;;;42.50;16.30;;;5.80;86.90;;;;;;5070255;28;20437;-72
2021/03/23 03:43:13;;;;;;;41.43;15.47;;;5.80;87.00;;;;;;5085487;28;20796;-72
2021/03/23 03:45:39;;;;;;;45.73;17.60;;;5.70;87.00;;;;;;5069767;28;20448;-72
2021/03/23 03:48:06;;;;;;;40.03;16.57;;;5.70;87.30;;;;;;5070252;28;20448;-71
2021/03/23 03:50:33;;;;;;;34.13;15.43;;;5.70;87.40;;;;;;5070425;28;20430;-72
2021/03/23 03:52:59;;;;;;;43.27;16.07;;;5.70;87.40;;;;;;5069208;28;21144;-72
2021/03/23 03:55:29;;;;;;;43.90;15.27;;;5.70;87.40;;;;;;5069592;28;20468;-71
2021/03/23 03:57:55;;;;;;;38.07;15.00;;;5.80;87.10;;;;;;5069899;28;20508;-71
2021/03/23 04:00:23;;;;;;;36.93;14.50;;;5.80;87.10;;;;;;5070013;28;20434;-71
2021/03/23 04:02:49;;;;;;;43.50;16.53;;;5.80;87.00;;;;;;5069326;28;20430;-72
2021/03/23 04:05:22;;;;;;;33.03;14.23;;;5.80;87.00;;;;;;5069786;28;20441;-71
2021/03/23 04:07:48;;;;;;;36.47;15.60;;;5.80;86.80;;;;;;5069074;28;20509;-71
2021/03/23 04:10:15;;;;;;;38.60;14.87;;;5.80;86.60;;;;;;5069996;28;20897;-71
2021/03/23 04:12:41;;;;;;;41.27;16.20;;;5.90;86.60;;;;;;5066645;28;20217;-72
2021/03/23 04:15:08;;;;;;;41.77;15.43;;;5.80;86.60;;;;;;5059761;28;20853;-71
2021/03/23 04:17:34;;;;;;;47.77;16.50;;;5.70;87.00;;;;;;5066390;28;20184;-72
2021/03/23 04:20:00;;;;;;;37.23;15.90;;;5.70;87.00;;;;;;5065721;28;20450;-72
2021/03/23 04:22:25;;;;;;;36.67;14.67;;;5.60;87.40;;;;;;5065694;28;20190;-72
2021/03/23 04:24:51;;;;;;;40.70;14.77;;;5.60;87.70;;;;;;5068890;28;20446;-72
2021/03/23 04:27:17;;;;;;;42.27;16.97;;;5.60;87.60;;;;;;5069603;28;20188;-73
2021/03/23 04:29:43;;;;;;;40.10;16.70;;;5.60;87.80;;;;;;5069853;28;20196;-72
2021/03/23 04:32:09;;;;;;;46.47;16.07;;;5.60;87.80;;;;;;5068970;28;20238;-72
2021/03/23 04:34:34;;;;;;;47.73;15.07;;;5.60;87.80;;;;;;5068989;28;20234;-72
2021/03/23 04:37:00;;;;;;;40.40;15.90;;;5.70;87.70;;;;;;5069387;28;20446;-73
2021/03/23 04:39:26;;;;;;;38.23;14.80;;;5.80;87.30;;;;;;5070843;28;20175;-73
2021/03/23 04:41:52;;;;;;;41.33;16.80;;;5.70;87.30;;;;;;5071239;28;20429;-73
2021/03/23 04:44:18;;;;;;;45.33;15.83;;;5.80;87.10;;;;;;5070924;28;20229;-71
2021/03/23 04:46:44;;;;;;;36.53;15.10;;;5.70;87.30;;;;;;5070860;28;20184;-72
2021/03/23 04:49:09;;;;;;;43.47;16.70;;;5.70;87.30;;;;;;5071142;28;20184;-73
2021/03/23 04:51:35;;;;;;;33.53;13.83;;;5.70;87.40;;;;;;5066159;28;20228;-72
2021/03/23 04:54:04;;;;;;;36.87;15.80;;;5.70;87.60;;;;;;5068820;28;20250;-72
2021/03/23 04:56:33;;;;;;;43.57;15.83;;;5.70;87.40;;;;;;5069747;28;20218;-72
2021/03/23 04:58:59;;;;;;;32.33;15.20;;;5.70;87.40;;;;;;5074595;28;21122;-72
2021/03/23 05:01:25;;;;;;;45.03;16.40;;;5.60;87.60;;;;;;5070673;28;20454;-72
2021/03/23 05:03:58;;;;;;;38.37;16.00;;;5.70;87.60;;;;;;5067288;28;20471;-72
2021/03/23 05:06:24;;;;;;;43.13;16.33;;;5.60;87.40;;;;;;5068110;28;20426;-71
2021/03/23 05:08:51;;;;;;;39.47;16.20;;;5.60;87.40;;;;;;5075038;28;20414;-72
2021/03/23 05:11:24;;;;;;;45.00;15.87;;;5.60;87.30;;;;;;5072517;28;20429;-71
2021/03/23 05:13:50;;;;;;;43.23;15.47;;;5.50;87.70;;;;;;5058067;28;20481;-72
2021/03/23 05:16:16;;;;;;;37.47;15.87;;;5.60;88.00;;;;;;5067626;28;20431;-71
2021/03/23 05:18:42;;;;;;;41.17;15.90;;;5.60;87.70;;;;;;5065610;28;20460;-72
2021/03/23 05:21:08;;;;;;;53.20;18.90;;;5.60;87.80;;;;;;5065005;28;20991;-71
2021/03/23 05:23:34;;;;;;;48.43;18.03;;;5.60;87.70;;;;;;5069957;28;20264;-72
2021/03/23 05:26:00;;;;;;;36.93;16.13;;;5.60;87.80;;;;;;5068788;28;21004;-72
2021/03/23 05:28:26;;;;;;;38.10;15.13;;;5.50;87.80;;;;;;5069385;28;20441;-70
2021/03/23 05:30:52;;;;;;;40.83;15.07;;;5.50;87.80;;;;;;5072152;28;20425;-73
2021/03/23 05:33:20;;;;;;;40.63;15.80;;;5.60;87.80;;;;;;5071591;28;20546;-72
2021/03/23 05:35:45;;;;;;;44.13;15.60;;;5.60;87.80;;;;;;5073019;28;20417;-70
2021/03/23 05:38:11;;;;;;;39.77;16.90;;;5.60;88.00;;;;;;5073850;28;20500;-72
2021/03/23 05:40:41;;;;;;;39.17;15.97;;;5.60;88.00;;;;;;5072815;28;20445;-71
2021/03/23 05:43:29;;;;;;;36.20;15.17;;;5.60;88.10;;;;;;5074515;28;20437;-72
2021/03/23 05:46:06;;;;;;;40.97;17.00;;;5.70;87.70;;;;;;5073871;28;20444;-72
2021/03/23 05:48:35;;;;;;;52.43;19.07;;;5.70;87.40;;;;;;5074094;28;20517;-71
2021/03/23 05:51:10;;;;;;;42.67;17.30;;;5.70;87.30;;;;;;5073691;28;20460;-72
2021/03/23 05:54:06;;;;;;;46.10;17.20;;;5.60;87.40;;;;;;5072270;28;20930;-71
2021/03/23 05:56:37;;;;;;;44.80;16.07;;;5.70;87.60;;;;;;5068277;28;20442;-71
2021/03/23 05:59:14;;;;;;;51.50;17.90;;;5.70;87.60;;;;;;5073862;28;20448;-71
2021/03/23 06:01:55;;;;;;;41.20;15.90;;;5.70;87.10;;;;;;5071810;28;20416;-72
2021/03/23 06:04:41;;;;;;;40.80;16.60;;;5.80;87.00;;;;;;5070157;28;20525;-72
2021/03/23 06:07:12;;;;;;;40.63;15.97;;;5.80;86.80;;;;;;5072212;28;20472;-72
2021/03/23 06:09:39;;;;;;;38.40;15.37;;;5.70;86.90;;;;;;5060258;28;20422;-72
2021/03/23 06:12:14;;;;;;;48.87;15.80;;;5.60;87.30;;;;;;5067160;28;20419;-71
2021/03/23 06:14:49;;;;;;;42.20;16.70;;;5.70;87.60;;;;;;5058409;28;20417;-73
2021/03/23 06:17:24;;;;;;;46.87;17.27;;;5.70;87.10;;;;;;5068655;28;20506;-72
2021/03/23 06:20:18;;;;;;;43.27;17.30;;;5.70;87.30;;;;;;5070447;28;20973;-72
2021/03/23 06:23:18;;;;;;;39.47;15.73;;;5.60;87.10;;;;;;5057805;28;20421;-73
2021/03/23 06:26:01;;;;;;;46.37;18.37;;;5.60;87.40;;;;;;5071090;28;20414;-73
2021/03/23 06:28:38;;;;;;;46.03;17.73;;;5.50;87.40;;;;;;5072117;28;20775;-73
2021/03/23 06:31:24;;;;;;;44.00;17.53;;;5.50;87.70;;;;;;5072118;28;20410;-73
2021/03/23 06:33:51;;;;;;;50.17;16.40;;;5.70;87.80;;;;;;5069734;28;20473;-72
2021/03/23 06:36:27;;;;;;;43.43;15.57;;;5.60;87.70;;;;;;5078815;28;20431;-71
2021/03/23 06:38:52;;;;;;;44.20;17.43;;;5.70;87.80;;;;;;5071527;28;20827;-72
2021/03/23 06:41:22;;;;;;;48.37;16.90;;;5.70;87.30;;;;;;5070499;28;20499;-72
2021/03/23 06:43:57;;;;;;;46.63;17.93;;;5.70;87.40;;;;;;5071786;28;20204;-72
2021/03/23 06:46:27;;;;;;;43.10;17.67;;;5.70;87.10;;;;;;5072720;28;20520;-73
2021/03/23 06:49:29;;;;;;;42.23;17.40;;;5.70;87.70;;;;;;5071833;28;20458;-72
2021/03/23 06:52:01;;;;;;;43.80;16.57;;;5.80;86.90;;;;;;5057988;28;20472;-72
2021/03/23 06:54:31;;;;;;;39.80;16.70;;;5.80;86.80;;;;;;5067376;28;20463;-72
2021/03/23 06:57:18;;;;;;;54.83;19.47;;;5.80;86.90;;;;;;5071955;28;20425;-72
2021/03/23 07:00:03;;;;;;;50.23;18.50;;;5.80;86.80;;;;;;5071667;28;20414;-72
2021/03/23 07:02:35;;;;;;;41.80;17.40;;;5.70;87.30;;;;;;5070850;28;20539;-73
2021/03/23 07:05:23;;;;;;;44.40;17.63;;;5.80;87.10;;;;;;5066482;28;20443;-73
2021/03/23 07:07:53;;;;;;;41.47;17.57;;;5.80;87.00;;;;;;5069930;28;20428;-73
2021/03/23 07:10:22;;;;;;;55.70;19.50;;;5.90;86.60;;;;;;5071618;28;20429;-73
2021/03/23 07:12:52;;;;;;;51.37;20.50;;;6.00;86.50;;;;;;5067337;28;20517;-72
2021/03/23 07:15:20;;;;;;;47.83;20.60;;;6.10;86.20;;;;;;5063011;28;20510;-72
2021/03/23 07:18:09;;;;;;;45.70;18.60;;;6.10;86.20;;;;;;5081424;28;20426;-73
2021/03/23 07:20:38;;;;;;;40.97;16.87;;;6.20;85.70;;;;;;5060863;28;20488;-72
2021/03/23 07:23:24;;;;;;;45.10;16.83;;;6.30;85.60;;;;;;5072224;28;20448;-73
2021/03/23 07:25:49;;;;;;;58.73;21.67;;;6.50;85.30;;;;;;5049752;28;20437;-73
2021/03/23 07:28:28;;;;;;;50.47;19.00;;;6.50;84.70;;;;;;5071430;28;20426;-72
2021/03/23 07:30:59;;;;;;;41.10;15.73;;;6.60;84.00;;;;;;5066351;28;20195;-73
2021/03/23 07:33:56;;;;;;;48.00;17.00;;;6.70;83.80;;;;;;5065909;28;20449;-72
2021/03/23 07:36:40;;;;;;;44.00;17.20;;;6.80;83.10;;;;;;5070939;28;20415;-72
2021/03/23 07:39:20;;;;;;;46.80;18.17;;;6.90;82.70;;;;;;5059470;28;20405;-73
2021/03/23 07:41:55;;;;;;;43.97;18.27;;;6.90;82.10;;;;;;5071477;28;21071;-73
2021/03/23 07:44:56;;;;;;;47.10;18.60;;;6.90;81.90;;;;;;5066213;28;20446;-71
2021/03/23 07:47:38;;;;;;;50.93;18.97;;;6.70;82.50;;;;;;5023773;28;20885;-72
2021/03/23 07:50:11;;;;;;;51.77;17.90;;;6.70;82.70;;;;;;5037132;28;20428;-73
2021/03/23 07:52:46;;;;;;;49.77;18.93;;;6.70;83.30;;;;;;5010196;28;20476;-74
2021/03/23 07:55:21;;;;;;;45.93;17.40;;;6.80;82.80;;;;;;5003836;28;20539;-75
2021/03/23 07:58:26;;;;;;;42.90;16.97;;;6.80;82.80;;;;;;5006210;28;20438;-72
2021/03/23 08:01:00;;;;;;;46.43;18.50;;;6.90;82.50;;;;;;5002691;28;20954;-74
2021/03/23 08:03:47;;;;;;;53.23;19.20;;;7.10;81.70;;;;;;5020469;28;20512;-74
2021/03/23 08:06:34;;;;;;;52.03;18.20;;;7.00;81.70;;;;;;5022338;28;20424;-74
2021/03/23 08:09:03;;;;;;;44.60;18.50;;;6.90;81.50;;;;;;4997038;28;20773;-73
2021/03/23 08:11:50;;;;;;;41.80;17.13;;;6.70;82.20;;;;;;5032911;28;20432;-73
2021/03/23 08:14:43;;;;;;;51.47;17.37;;;6.80;82.80;;;;;;5032651;28;21005;-74
2021/03/23 08:17:45;;;;;;;46.20;17.27;;;6.90;82.50;;;;;;5037756;28;20424;-75
2021/03/23 08:20:45;;;;;;;47.10;17.80;;;7.10;82.20;;;;;;5012129;28;20448;-73
2021/03/23 08:23:48;;;;;;;43.40;17.10;;;7.40;80.60;;;;;;5068319;28;20417;-73
2021/03/23 08:26:51;;;;;;;48.40;17.33;;;7.40;80.00;;;;;;5075938;28;20409;-72
2021/03/23 08:29:33;;;;;;;38.43;16.17;;;7.40;79.70;;;;;;5073374;28;20421;-72
2021/03/23 08:32:37;;;;;;;43.50;17.10;;;7.30;79.60;;;;;;5069775;28;20437;-73
2021/03/23 08:35:28;;;;;;;42.47;17.43;;;7.40;79.70;;;;;;5070231;28;20488;-71
2021/03/23 08:38:09;;;;;;;53.20;18.17;;;7.70;79.20;;;;;;5071425;28;20726;-72
2021/03/23 08:40:41;;;;;;;39.87;17.00;;;7.80;78.10;;;;;;5059157;28;20525;-72
2021/03/23 08:43:13;;;;;;;46.30;17.40;;;7.90;78.00;;;;;;5068200;28;20426;-72
2021/03/23 08:45:49;;;;;;;47.47;18.93;;;8.10;76.80;;;;;;5068459;28;20454;-72
2021/03/23 08:48:28;;;;;;;41.07;16.63;;;7.90;77.00;;;;;;5069915;28;20426;-71
2021/03/23 08:51:03;;;;;;;41.93;17.60;;;8.00;77.10;;;;;;5073077;28;20426;-72
2021/03/23 08:53:28;;;;;;;45.07;16.00;;;8.10;76.10;;;;;;5056518;28;20538;-71
2021/03/23 08:55:55;;;;;;;45.20;16.33;;;8.20;76.20;;;;;;5069801;28;20450;-73
2021/03/23 08:58:45;;;;;;;52.00;18.87;;;8.30;75.70;;;;;;5070282;28;20357;-72
2021/03/23 09:01:29;;;;;;;43.83;16.60;;;8.30;75.90;;;;;;5068245;28;20426;-71
2021/03/23 09:04:27;;;;;;;40.83;15.60;;;8.50;75.20;;;;;;5067132;28;20450;-72
2021/03/23 09:06:57;;;;;;;43.90;15.13;;;8.60;74.50;;;;;;5062901;28;20418;-72
2021/03/23 09:09:29;;;;;;;43.27;14.33;;;8.50;73.20;;;;;;5085977;28;20464;-73
2021/03/23 09:12:03;;;;;;;38.13;15.17;;;8.70;72.90;;;;;;5070664;28;20916;-73
2021/03/23 09:14:32;;;;;;;39.90;13.10;;;8.90;71.60;;;;;;5072953;28;20457;-73
2021/03/23 09:16:57;;;;;;;30.80;12.67;;;8.90;71.60;;;;;;5073851;28;20471;-72
2021/03/23 09:19:40;;;;;;;26.77;12.60;;;9.00;70.10;;;;;;5072608;28;20524;-72
2021/03/23 09:22:09;;;;;;;29.90;10.20;;;9.10;69.20;;;;;;5068287;28;20561;-72
2021/03/23 09:24:38;;;;;;;27.80;11.33;;;9.20;68.00;;;;;;5069451;28;20814;-73
2021/03/23 09:27:31;;;;;;;32.63;11.30;;;9.20;67.50;;;;;;5069897;28;20442;-73
2021/03/23 09:29:57;;;;;;;21.50;10.13;;;9.10;67.20;;;;;;5069109;28;20550;-73
2021/03/23 09:32:28;;;;;;;27.83;11.10;;;8.80;67.20;;;;;;5067398;28;20955;-73
2021/03/23 09:35:24;;;;;;;23.50;9.80;;;9.00;67.50;;;;;;5068688;28;20445;-73
2021/03/23 09:37:51;;;;;;;24.80;10.80;;;9.40;65.80;;;;;;5064502;28;20833;-72
2021/03/23 09:40:20;;;;;;;18.93;9.20;;;9.60;64.70;;;;;;5066855;28;20832;-72
2021/03/23 09:43:23;;;;;;;16.03;7.60;;;9.50;62.00;;;;;;5064445;28;20427;-71
2021/03/23 09:45:49;;;;;;;22.10;8.43;;;9.70;60.60;;;;;;5057931;28;20457;-73
2021/03/23 09:48:36;;;;;;;16.90;7.57;;;9.70;60.70;;;;;;5069374;28;20460;-71
2021/03/23 09:51:14;;;;;;;15.23;7.70;;;9.80;60.10;;;;;;5063965;28;20687;-73
2021/03/23 09:53:42;;;;;;;16.80;8.13;;;9.80;58.80;;;;;;5069383;28;20916;-72
2021/03/23 09:56:14;;;;;;;25.43;9.27;;;9.70;59.90;;;;;;5069805;28;20422;-72
2021/03/23 09:58:41;;;;;;;26.53;9.80;;;9.50;60.70;;;;;;5072454;28;20424;-74
2021/03/23 10:01:21;;;;;;;17.83;7.90;;;9.50;61.70;;;;;;5070838;28;20418;-73
2021/03/23 10:03:49;;;;;;;22.10;8.27;;;9.50;61.60;;;;;;5065673;28;20458;-72
2021/03/23 10:06:20;;;;;;;23.13;8.57;;;9.40;62.50;;;;;;5069858;28;20966;-71
2021/03/23 10:08:51;;;;;;;14.10;6.70;;;9.20;61.30;;;;;;5071962;28;20422;-72
2021/03/23 10:11:18;;;;;;;14.30;6.00;;;9.20;60.00;;;;;;5071452;28;20426;-72
2021/03/23 10:14:09;;;;;;;18.30;7.70;;;9.00;59.50;;;;;;5065962;28;20564;-72
2021/03/23 10:16:37;;;;;;;13.53;5.70;;;8.80;59.70;;;;;;5065549;28;20490;-72
2021/03/23 10:19:05;;;;;;;19.87;7.47;;;8.80;59.70;;;;;;5073381;28;20426;-73
2021/03/23 10:21:33;;;;;;;15.03;6.93;;;8.70;60.60;;;;;;5065042;28;20430;-72
2021/03/23 10:24:04;;;;;;;14.23;5.97;;;8.70;61.00;;;;;;5072139;28;21238;-73
2021/03/23 10:26:38;;;;;;;10.90;5.80;;;8.70;60.00;;;;;;5071392;28;20432;-72
2021/03/23 10:29:51;;;;;;;13.00;5.70;;;8.70;59.10;;;;;;5074844;28;20414;-71
2021/03/23 10:32:20;;;;;;;18.07;7.27;;;8.80;59.70;;;;;;5010248;28;20441;-74
2021/03/23 10:35:07;;;;;;;13.30;6.23;;;8.90;59.90;;;;;;4996401;28;20445;-73
2021/03/23 10:37:33;;;;;;;15.70;7.23;;;8.90;59.50;;;;;;5011490;28;20447;-74
2021/03/23 10:39:59;;;;;;;13.47;6.77;;;9.00;59.90;;;;;;5011327;28;20428;-72
2021/03/23 10:42:26;;;;;;;12.00;6.10;;;9.10;59.20;;;;;;4994742;28;20860;-73
2021/03/23 10:45:12;;;;;;;11.13;5.43;;;9.10;59.10;;;;;;5010737;28;20455;-72
2021/03/23 10:47:45;;;;;;;12.60;5.10;;;9.00;58.80;;;;;;5010577;28;20436;-73
2021/03/23 10:50:31;;;;;;;10.80;4.33;;;9.20;57.00;;;;;;5009727;28;20523;-72
2021/03/23 10:53:11;;;;;;;12.03;4.90;;;9.30;56.00;;;;;;5009766;28;20492;-73
2021/03/23 10:55:43;;;;;;;14.80;6.80;;;9.20;56.60;;;;;;5009410;28;20440;-72
2021/03/23 10:58:25;;;;;;;17.43;5.70;;;9.10;57.40;;;;;;5012015;28;20416;-73
2021/03/23 11:01:09;;;;;;;10.27;5.63;;;9.20;57.60;;;;;;5012930;28;20463;-73
2021/03/23 11:03:35;;;;;;;16.10;6.23;;;9.30;57.00;;;;;;5010624;28;20469;-72
2021/03/23 11:06:03;;;;;;;16.03;7.20;;;9.10;57.80;;;;;;5033888;28;20558;-75
2021/03/23 11:08:29;;;;;;;17.20;6.70;;;8.90;59.30;;;;;;5072151;28;20422;-75
2021/03/23 11:10:59;;;;;;;18.47;7.07;;;8.70;59.60;;;;;;5072667;28;20511;-73
2021/03/23 11:13:25;;;;;;;16.43;7.17;;;8.70;60.30;;;;;;5061875;28;20463;-72
2021/03/23 11:15:53;;;;;;;15.90;7.33;;;8.90;60.30;;;;;;5066016;28;20457;-72
2021/03/23 11:18:30;;;;;;;15.03;6.97;;;9.00;59.90;;;;;;5071659;28;20414;-74
2021/03/23 11:21:02;;;;;;;11.77;5.60;;;9.00;58.90;;;;;;5063706;28;20425;-71
2021/03/23 11:23:41;;;;;;;16.30;6.70;;;9.00;58.90;;;;;;5072547;28;20441;-73
2021/03/23 11:26:11;;;;;;;11.37;5.67;;;9.10;58.50;;;;;;5054168;28;20433;-73
2021/03/23 11:28:37;;;;;;;10.43;5.80;;;9.30;58.20;;;;;;5065737;28;20426;-73
2021/03/23 11:31:05;;;;;;;13.47;6.10;;;9.50;57.80;;;;;;5075061;28;20448;-73
2021/03/23 11:33:32;;;;;;;10.67;5.67;;;9.60;57.00;;;;;;5072511;28;20468;-72
2021/03/23 11:35:58;;;;;;;12.73;5.70;;;9.60;56.80;;;;;;5070506;28;20516;-73
2021/03/23 11:38:25;;;;;;;15.03;6.53;;;9.50;56.20;;;;;;5072923;28;20430;-72
2021/03/23 11:40:54;;;;;;;10.57;5.83;;;9.40;56.40;;;;;;5077639;28;20430;-72
2021/03/23 11:43:35;;;;;;;8.67;5.60;;;9.30;56.40;;;;;;5074391;28;20426;-73
2021/03/23 11:46:12;;;;;;;16.37;5.60;;;9.40;56.50;;;;;;5070539;28;20449;-72
2021/03/23 11:48:39;;;;;;;14.07;5.20;;;9.30;56.60;;;;;;5071124;28;20429;-74
2021/03/23 11:51:05;;;;;;;11.80;5.97;;;9.20;57.30;;;;;;5068926;28;20449;-73
2021/03/23 11:53:31;;;;;;;19.33;7.23;;;9.20;57.40;;;;;;5057650;28;20548;-72
2021/03/23 11:55:57;;;;;;;17.03;6.80;;;9.20;58.20;;;;;;5070346;28;20617;-73
2021/03/23 11:58:25;;;;;;;16.97;8.10;;;9.10;59.20;;;;;;5066133;28;20534;-73
2021/03/23 12:00:52;;;;;;;16.43;7.37;;;9.00;59.70;;;;;;5063736;28;20689;-73
2021/03/23 12:03:18;;;;;;;18.30;7.60;;;8.80;59.60;;;;;;5070167;28;20926;-73
2021/03/23 12:05:44;;;;;;;14.67;7.67;;;8.70;60.90;;;;;;5069230;28;20824;-73
2021/03/23 12:08:32;;;;;;;18.80;7.67;;;8.60;61.70;;;;;;5070613;28;20425;-73
2021/03/23 12:11:18;;;;;;;17.67;7.00;;;8.70;61.20;;;;;;5069712;28;20433;-72
2021/03/23 12:14:05;;;;;;;18.33;7.53;;;8.70;60.70;;;;;;5069901;28;20546;-73
2021/03/23 12:16:33;;;;;;;17.13;7.10;;;8.50;60.70;;;;;;5074918;28;20449;-72
2021/03/23 12:19:05;;;;;;;19.10;8.03;;;8.50;60.90;;;;;;5067982;28;20423;-73
2021/03/23 12:21:31;;;;;;;18.47;7.83;;;8.40;61.50;;;;;;5062940;28;20453;-72
2021/03/23 12:23:58;;;;;;;20.17;8.47;;;8.50;61.60;;;;;;5072171;28;22057;-72
2021/03/23 12:26:24;;;;;;;18.30;8.57;;;8.80;61.20;;;;;;5070752;28;20471;-71
2021/03/23 12:28:50;;;;;;;16.40;7.70;;;9.00;60.60;;;;;;5068910;28;20804;-72
2021/03/23 12:31:16;;;;;;;14.40;7.60;;;9.00;59.70;;;;;;5070297;28;20433;-72
2021/03/23 12:33:42;;;;;;;18.60;8.10;;;9.20;59.90;;;;;;5068672;28;20751;-72
2021/03/23 12:36:11;;;;;;;14.87;7.60;;;9.30;59.30;;;;;;5069317;28;20509;-72
2021/03/23 12:38:39;;;;;;;15.70;7.20;;;9.30;58.80;;;;;;5070801;28;21043;-73
2021/03/23 12:41:05;;;;;;;17.83;8.00;;;9.20;59.20;;;;;;5071574;28;20517;-72
2021/03/23 12:43:31;;;;;;;15.43;7.17;;;9.30;59.30;;;;;;5071532;28;20426;-72
2021/03/23 12:45:59;;;;;;;16.23;7.00;;;9.30;59.10;;;;;;5086401;28;20445;-71
2021/03/23 12:48:25;;;;;;;18.97;8.23;;;9.40;59.50;;;;;;5064906;28;20441;-71
2021/03/23 12:50:53;;;;;;;21.03;8.53;;;9.60;58.70;;;;;;5058845;28;20426;-71
2021/03/23 12:53:20;;;;;;;16.20;7.50;;;9.80;58.00;;;;;;5068560;28;20469;-72
2021/03/23 12:55:55;;;;;;;15.83;7.83;;;9.80;57.30;;;;;;5069205;28;20504;-73
2021/03/23 12:58:28;;;;;;;17.93;7.90;;;9.70;57.80;;;;;;5070407;28;20418;-72
2021/03/23 13:00:55;;;;;;;16.87;7.90;;;9.40;58.10;;;;;;5069230;28;20414;-72
2021/03/23 13:03:21;;;;;;;19.03;8.17;;;9.50;58.70;;;;;;5069493;28;20430;-71
2021/03/23 13:05:51;;;;;;;19.07;9.00;;;9.40;58.90;;;;;;5069090;28;20472;-72